Time;durP1;ratioP1;P1;durP2;ratioP2;P2;SDS_P1;SDS_P2;PMS_P1;PMS_P2;Temp;Humidity;BMP_temperature;BMP_pressure;BME280_temperature;BME280_humidity;BME280_pressure;Samples;Min_cycle;Max_cycle;Signal;HPM_P1;HPM_P2
2023/05/21 00:01:22;;;;;;;5.30;2.30;;;21.70;81.30;;;;;;5053588;28;20398;-60
2023/05/21 00:03:48;;;;;;;3.75;2.30;;;21.70;81.30;;;;;;5066092;28;20063;-62
2023/05/21 00:06:14;;;;;;;4.57;2.50;;;21.50;81.30;;;;;;5072742;28;20047;-60
2023/05/21 00:08:41;;;;;;;6.35;2.72;;;21.70;78.10;;;;;;5071535;28;20040;-64
2023/05/21 00:11:07;;;;;;;5.80;2.40;;;21.60;81.30;;;;;;5059985;28;20059;-60
2023/05/21 00:13:33;;;;;;;4.75;2.10;;;21.70;81.40;;;;;;5073318;28;20386;-60
2023/05/21 00:15:59;;;;;;;4.13;2.08;;;21.60;81.30;;;;;;5063248;28;20052;-61
2023/05/21 00:18:25;;;;;;;5.22;2.30;;;21.70;81.40;;;;;;5055040;28;20048;-60
2023/05/21 00:20:51;;;;;;;4.38;2.08;;;22.30;78.40;;;;;;5062925;28;20460;-62
2023/05/21 00:23:18;;;;;;;4.18;2.28;;;21.80;81.40;;;;;;5065537;28;20044;-62
2023/05/21 00:25:45;;;;;;;5.43;2.60;;;21.80;81.40;;;;;;5057682;28;20503;-61
2023/05/21 00:28:11;;;;;;;5.13;2.60;;;;;;;;;;5057037;28;20053;-63
2023/05/21 00:30:38;;;;;;;5.25;2.30;;;21.70;80.90;;;;;;5060010;28;20033;-62
2023/05/21 00:33:04;;;;;;;6.38;2.40;;;21.80;81.50;;;;;;5060500;28;20098;-62
2023/05/21 00:35:30;;;;;;;3.60;2.10;;;21.60;81.40;;;;;;5054985;28;20036;-62
2023/05/21 00:37:56;;;;;;;5.65;2.58;;;21.50;81.30;;;;;;5066179;28;20052;-61
2023/05/21 00:40:22;;;;;;;6.30;2.55;;;;;;;;;;5062204;28;20489;-63
2023/05/21 00:42:48;;;;;;;5.05;2.33;;;21.60;81.40;;;;;;5060715;28;20041;-61
2023/05/21 00:45:14;;;;;;;5.68;2.50;;;;;;;;;;5060956;28;20390;-61
2023/05/21 00:47:40;;;;;;;5.85;2.60;;;21.70;81.50;;;;;;5055563;28;20040;-60
2023/05/21 00:50:07;;;;;;;4.22;2.60;;;21.70;81.50;;;;;;5053648;28;20036;-61
2023/05/21 00:52:40;;;;;;;5.53;2.63;;;21.50;81.30;;;;;;5051058;28;20084;-60
2023/05/21 00:55:06;;;;;;;5.68;2.20;;;21.40;81.40;;;;;;5052651;28;20044;-60
2023/05/21 00:57:32;;;;;;;5.90;2.78;;;21.50;81.40;;;;;;5052976;28;20056;-63
2023/05/21 00:59:58;;;;;;;5.80;2.75;;;21.60;81.40;;;;;;5044150;28;20045;-61
2023/05/21 01:02:24;;;;;;;5.63;2.50;;;21.50;81.40;;;;;;5056297;28;20200;-68
2023/05/21 01:04:53;;;;;;;6.32;2.60;;;21.40;81.40;;;;;;5055099;28;20040;-61
2023/05/21 01:07:19;;;;;;;5.88;2.50;;;21.50;81.40;;;;;;5060206;28;20080;-60
2023/05/21 01:09:45;;;;;;;4.78;2.60;;;21.50;81.50;;;;;;5060755;28;20098;-61
2023/05/21 01:12:11;;;;;;;5.20;3.03;;;21.50;81.60;;;;;;5052751;28;20044;-60
2023/05/21 01:14:37;;;;;;;6.13;2.60;;;21.80;81.70;;;;;;5060349;28;20037;-60
2023/05/21 01:17:04;;;;;;;6.20;2.90;;;21.40;77.80;;;;;;5043910;28;20570;-60
2023/05/21 01:19:31;;;;;;;5.32;2.70;;;21.30;79.10;;;;;;5061937;28;20041;-62
2023/05/21 01:22:03;;;;;;;5.75;2.97;;;21.50;78.20;;;;;;5056420;28;20487;-60
2023/05/21 01:24:29;;;;;;;4.70;2.30;;;21.50;79.90;;;;;;5063200;28;20513;-61
2023/05/21 01:26:55;;;;;;;4.97;2.45;;;21.40;81.60;;;;;;5052325;28;20048;-60
2023/05/21 01:29:21;;;;;;;4.78;2.65;;;21.40;81.60;;;;;;5056223;28;20434;-61
2023/05/21 01:31:47;;;;;;;4.90;2.53;;;;;;;;;;5052662;28;20037;-61
2023/05/21 01:34:13;;;;;;;6.38;2.63;;;21.40;81.70;;;;;;5060463;28;20044;-60
2023/05/21 01:36:42;;;;;;;5.00;2.80;;;21.50;78.50;;;;;;5047599;28;20518;-62
2023/05/21 01:39:24;;;;;;;4.93;2.53;;;21.40;81.70;;;;;;5046397;28;20036;-61
2023/05/21 01:41:50;;;;;;;4.82;2.42;;;21.30;81.50;;;;;;5060514;28;20075;-60
2023/05/21 01:44:16;;;;;;;6.40;3.05;;;21.70;77.60;;;;;;5045186;28;20033;-63
2023/05/21 01:46:42;;;;;;;5.60;2.50;;;21.40;81.70;;;;;;5035289;28;20057;-60
2023/05/21 01:49:08;;;;;;;4.70;2.50;;;21.50;81.70;;;;;;5043901;28;20437;-60
2023/05/21 01:51:34;;;;;;;5.35;2.47;;;;;;;;;;5063035;28;20132;-66
2023/05/21 01:54:01;;;;;;;6.57;2.88;;;21.20;81.60;;;;;;5042495;28;20382;-60
2023/05/21 01:56:27;;;;;;;6.63;2.50;;;21.50;81.80;;;;;;5058911;28;20113;-60
2023/05/21 01:58:55;;;;;;;6.03;2.88;;;21.50;81.80;;;;;;5060040;28;20114;-60
2023/05/21 02:01:21;;;;;;;5.00;2.53;;;21.40;81.80;;;;;;5043778;28;20037;-60
2023/05/21 02:03:47;;;;;;;4.90;2.50;;;21.60;79.20;;;;;;5053284;28;20479;-60
2023/05/21 02:06:13;;;;;;;5.63;2.35;;;21.50;81.90;;;;;;5060334;28;20053;-61
2023/05/21 02:08:39;;;;;;;5.22;2.50;;;21.40;80.40;;;;;;5059662;28;20068;-61
2023/05/21 02:11:04;;;;;;;5.03;2.20;;;21.40;81.90;;;;;;5051749;28;20084;-60
2023/05/21 02:13:31;;;;;;;5.32;2.53;;;21.50;81.90;;;;;;5060149;28;20049;-60
2023/05/21 02:15:57;;;;;;;6.10;2.80;;;21.60;82.00;;;;;;5048961;28;20449;-60
2023/05/21 02:18:22;;;;;;;4.60;2.50;;;21.40;81.80;;;;;;5056629;28;20045;-60
2023/05/21 02:20:48;;;;;;;6.53;2.60;;;21.30;81.80;;;;;;5054332;28;20041;-60
2023/05/21 02:23:14;;;;;;;4.60;2.40;;;21.40;81.90;;;;;;5052606;28;20102;-60
2023/05/21 02:25:40;;;;;;;4.97;2.60;;;21.60;82.10;;;;;;5069992;28;20043;-60
2023/05/21 02:28:06;;;;;;;5.43;2.75;;;;;;;;;;5051845;28;20052;-61
2023/05/21 02:30:32;;;;;;;6.95;2.50;;;21.60;82.10;;;;;;5063066;28;20060;-61
2023/05/21 02:32:58;;;;;;;5.65;2.53;;;21.60;82.10;;;;;;5059339;28;20045;-60
2023/05/21 02:35:24;;;;;;;4.43;2.30;;;21.50;82.00;;;;;;5065838;28;20091;-60
2023/05/21 02:37:50;;;;;;;5.55;2.63;;;21.40;82.00;;;;;;5060550;28;20159;-60
2023/05/21 02:40:15;;;;;;;4.75;2.42;;;21.40;82.00;;;;;;5055176;28;20171;-61
2023/05/21 02:42:41;;;;;;;4.78;2.50;;;21.30;82.00;;;;;;5063083;28;20048;-61
2023/05/21 02:45:08;;;;;;;6.40;2.70;;;21.40;80.10;;;;;;5065927;28;20036;-61
2023/05/21 02:47:34;;;;;;;5.55;2.55;;;21.30;82.00;;;;;;5060005;28;20044;-60
2023/05/21 02:50:00;;;;;;;6.60;2.95;;;21.20;81.90;;;;;;5062496;28;20051;-60
2023/05/21 02:52:26;;;;;;;7.35;2.63;;;21.40;82.00;;;;;;5058333;28;20083;-60
2023/05/21 02:54:52;;;;;;;6.15;2.65;;;;;;;;;;5065682;28;20137;-64
2023/05/21 02:57:18;;;;;;;4.57;2.20;;;21.50;82.10;;;;;;5056504;28;20040;-60
2023/05/21 02:59:44;;;;;;;4.75;2.47;;;21.40;82.10;;;;;;5058529;28;20052;-60
2023/05/21 03:02:10;;;;;;;4.53;2.13;;;21.60;82.20;;;;;;5062268;28;20138;-60
2023/05/21 03:04:45;;;;;;;7.80;3.20;;;21.50;82.20;;;;;;5062315;28;20076;-59
2023/05/21 03:07:14;;;;;;;4.80;2.33;;;21.40;82.10;;;;;;5056509;28;20431;-59
2023/05/21 03:09:43;;;;;;;5.70;2.78;;;21.30;82.10;;;;;;5059512;28;20037;-60
2023/05/21 03:12:09;;;;;;;6.97;2.55;;;21.40;82.10;;;;;;5061965;28;20520;-61
2023/05/21 03:14:35;;;;;;;5.78;2.90;;;;;;;;;;5054010;28;20041;-60
2023/05/21 03:17:04;;;;;;;5.18;2.42;;;21.30;82.10;;;;;;5044787;28;20047;-59
2023/05/21 03:19:34;;;;;;;5.15;2.28;;;21.40;82.10;;;;;;5056063;28;20045;-59
2023/05/21 03:22:01;;;;;;;4.75;2.40;;;21.40;82.20;;;;;;5062111;28;20088;-60
2023/05/21 03:24:29;;;;;;;6.13;2.60;;;21.30;82.20;;;;;;5038038;28;20045;-60
2023/05/21 03:26:55;;;;;;;7.10;2.58;;;21.40;82.20;;;;;;5062763;28;20465;-60
2023/05/21 03:29:21;;;;;;;5.05;2.40;;;21.30;82.20;;;;;;5064906;28;20490;-60
2023/05/21 03:31:46;;;;;;;5.78;2.40;;;21.20;82.20;;;;;;5062120;28;20037;-60
2023/05/21 03:34:12;;;;;;;5.15;2.40;;;21.30;82.40;;;;;;5061576;28;20044;-60
2023/05/21 03:36:38;;;;;;;6.00;2.45;;;21.20;82.20;;;;;;5061521;28;20053;-60
2023/05/21 03:39:05;;;;;;;5.20;2.42;;;;;;;;;;5063510;28;20045;-61
2023/05/21 03:41:30;;;;;;;4.65;2.50;;;21.30;82.30;;;;;;5062087;28;20398;-60
2023/05/21 03:43:57;;;;;;;4.45;2.33;;;;;;;;;;5044289;28;20036;-62
2023/05/21 03:46:22;;;;;;;6.50;2.42;;;21.50;82.50;;;;;;5059821;28;20056;-60
2023/05/21 03:48:49;;;;;;;5.75;2.47;;;;;;;;;;5061507;28;20044;-64
2023/05/21 03:51:16;;;;;;;5.57;2.47;;;21.30;82.40;;;;;;5062515;28;20425;-68
2023/05/21 03:53:42;;;;;;;5.60;2.72;;;21.30;82.40;;;;;;5061972;28;20109;-67
2023/05/21 03:56:08;;;;;;;5.38;2.47;;;21.30;82.40;;;;;;5053904;28;20041;-60
2023/05/21 03:58:34;;;;;;;6.90;2.92;;;21.10;82.30;;;;;;5069372;28;20124;-61
2023/05/21 04:01:01;;;;;;;6.78;2.58;;;21.30;79.60;;;;;;5064908;28;20505;-62
2023/05/21 04:03:27;;;;;;;6.18;2.30;;;21.50;82.70;;;;;;5055398;28;20163;-60
2023/05/21 04:05:53;;;;;;;7.05;2.63;;;21.20;82.50;;;;;;5053395;28;20041;-60
2023/05/21 04:08:19;;;;;;;5.97;2.40;;;21.30;82.50;;;;;;5057857;28;20033;-60
2023/05/21 04:10:45;;;;;;;3.95;2.15;;;21.20;82.40;;;;;;5056040;28;20057;-61
2023/05/21 04:13:11;;;;;;;5.13;2.70;;;21.20;82.10;;;;;;5056628;28;20056;-61
2023/05/21 04:15:37;;;;;;;6.10;2.47;;;21.30;82.50;;;;;;5043380;28;20430;-60
2023/05/21 04:18:03;;;;;;;6.45;2.83;;;21.20;82.50;;;;;;5061129;28;20422;-60
2023/05/21 04:20:29;;;;;;;7.20;2.70;;;21.30;80.30;;;;;;5064622;28;20036;-60
2023/05/21 04:22:55;;;;;;;4.45;2.28;;;21.50;82.70;;;;;;5057009;28;20052;-59
2023/05/21 04:25:22;;;;;;;8.02;2.60;;;21.20;80.50;;;;;;5055505;28;20121;-62
2023/05/21 04:27:48;;;;;;;4.75;2.30;;;21.40;82.50;;;;;;5053318;28;20129;-60
2023/05/21 04:30:14;;;;;;;7.07;3.05;;;21.20;82.30;;;;;;5060711;28;20108;-60
2023/05/21 04:32:44;;;;;;;7.25;2.42;;;21.20;82.40;;;;;;5060158;28;20546;-60
2023/05/21 04:35:11;;;;;;;5.43;2.30;;;21.20;82.30;;;;;;5048515;28;20048;-60
2023/05/21 04:37:40;;;;;;;5.45;2.40;;;21.40;80.50;;;;;;5059765;28;20501;-67
2023/05/21 04:40:09;;;;;;;5.22;2.17;;;21.00;78.60;;;;;;5064087;28;20040;-61
2023/05/21 04:42:35;;;;;;;5.45;2.60;;;21.30;82.40;;;;;;5059061;28;20114;-60
2023/05/21 04:45:01;;;;;;;4.60;2.15;;;21.30;82.40;;;;;;5053095;28;20045;-61
2023/05/21 04:47:34;;;;;;;6.68;2.50;;;21.20;79.20;;;;;;5059445;28;20057;-60
2023/05/21 04:50:01;;;;;;;5.22;2.97;;;21.20;82.40;;;;;;5052964;28;20040;-64
2023/05/21 04:52:27;;;;;;;4.55;2.30;;;;;;;;;;5053192;28;20061;-66
2023/05/21 04:54:53;;;;;;;6.55;2.60;;;21.50;82.20;;;;;;5061573;28;20037;-65
2023/05/21 04:57:20;;;;;;;7.32;2.40;;;21.60;82.20;;;;;;5058115;28;20039;-60
2023/05/21 04:59:48;;;;;;;6.95;2.58;;;;;;;;;;5063433;28;20048;-60
2023/05/21 05:02:13;;;;;;;5.50;2.53;;;21.60;82.20;;;;;;5056278;28;20048;-59
2023/05/21 05:04:39;;;;;;;4.63;2.13;;;21.50;81.60;;;;;;5052590;28;20041;-60
2023/05/21 05:07:06;;;;;;;4.43;2.10;;;;;;;;;;5056466;28;20051;-62
2023/05/21 05:09:32;;;;;;;5.13;2.30;;;21.60;81.70;;;;;;5052954;28;20045;-60
2023/05/21 05:11:58;;;;;;;5.53;2.50;;;21.80;81.70;;;;;;5056930;28;20059;-66
2023/05/21 05:14:25;;;;;;;4.68;2.40;;;22.00;81.70;;;;;;5055630;28;20041;-60
2023/05/21 05:16:53;;;;;;;5.90;2.10;;;22.10;81.50;;;;;;5058209;28;20040;-59
2023/05/21 05:19:19;;;;;;;6.13;2.65;;;22.10;81.20;;;;;;5054875;28;20053;-60
2023/05/21 05:21:46;;;;;;;5.47;2.50;;;22.20;81.30;;;;;;5057119;28;20585;-60
2023/05/21 05:24:13;;;;;;;5.50;2.42;;;22.20;81.10;;;;;;5051788;28;20087;-59
2023/05/21 05:26:39;;;;;;;5.47;2.15;;;22.30;79.00;;;;;;5052211;28;20037;-60
2023/05/21 05:29:05;;;;;;;4.03;2.15;;;22.20;80.80;;;;;;5052431;28;20163;-61
2023/05/21 05:31:31;;;;;;;5.88;2.13;;;22.10;80.50;;;;;;5060396;28;20127;-60
2023/05/21 05:33:57;;;;;;;4.72;2.42;;;22.60;80.60;;;;;;5052423;28;20052;-60
2023/05/21 05:36:23;;;;;;;6.47;2.38;;;22.60;80.60;;;;;;5057729;28;20052;-60
2023/05/21 05:38:48;;;;;;;5.93;2.40;;;22.50;80.30;;;;;;5063098;28;20086;-62
2023/05/21 05:41:14;;;;;;;6.25;2.65;;;22.70;79.80;;;;;;5063278;28;20052;-60
2023/05/21 05:43:41;;;;;;;5.63;2.20;;;22.80;80.20;;;;;;5053434;28;20135;-60
2023/05/21 05:46:07;;;;;;;8.55;2.15;;;22.80;79.90;;;;;;5052201;28;20040;-60
2023/05/21 05:48:32;;;;;;;4.88;2.25;;;22.90;80.00;;;;;;5060044;28;20098;-60
2023/05/21 05:50:59;;;;;;;4.10;2.03;;;22.60;79.80;;;;;;5045874;28;20044;-60
2023/05/21 05:53:26;;;;;;;3.53;1.88;;;23.10;80.00;;;;;;5038141;28;20398;-61
2023/05/21 05:55:52;;;;;;;5.30;2.20;;;22.90;79.70;;;;;;5053967;28;20041;-60
2023/05/21 05:58:18;;;;;;;4.80;2.20;;;22.70;79.60;;;;;;5062138;28;20056;-61
2023/05/21 06:00:44;;;;;;;4.63;2.15;;;23.00;79.70;;;;;;5046315;28;20040;-60
2023/05/21 06:03:10;;;;;;;5.22;2.47;;;;;;;;;;5062780;28;20398;-62
2023/05/21 06:05:37;;;;;;;4.55;2.30;;;22.90;79.70;;;;;;5062045;28;20040;-61
2023/05/21 06:08:03;;;;;;;5.55;2.35;;;23.10;79.60;;;;;;5056952;28;20045;-61
2023/05/21 06:10:28;;;;;;;8.05;2.60;;;22.90;79.40;;;;;;5059312;28;20126;-60
2023/05/21 06:12:54;;;;;;;4.32;2.20;;;22.90;77.40;;;;;;5057990;28;20091;-62
2023/05/21 06:15:21;;;;;;;5.22;2.30;;;;;;;;;;5062849;28;20048;-61
2023/05/21 06:17:46;;;;;;;5.22;2.38;;;22.70;79.40;;;;;;5061958;28;20414;-60
2023/05/21 06:20:12;;;;;;;3.90;2.08;;;23.10;79.40;;;;;;5060474;28;20036;-60
2023/05/21 06:22:38;;;;;;;5.25;2.10;;;22.90;79.20;;;;;;5057569;28;20479;-60
2023/05/21 06:25:05;;;;;;;4.97;2.17;;;22.80;79.10;;;;;;5068415;28;20120;-60
2023/05/21 06:27:32;;;;;;;5.82;2.28;;;23.20;79.20;;;;;;5056378;28;20088;-60
2023/05/21 06:29:58;;;;;;;5.88;2.17;;;24.10;75.70;;;;;;5061754;28;20033;-63
2023/05/21 06:32:24;;;;;;;4.90;2.38;;;23.10;79.10;;;;;;5058803;28;20037;-60
2023/05/21 06:34:50;;;;;;;5.75;2.30;;;;;;;;;;5055610;28;20041;-62
2023/05/21 06:37:20;;;;;;;5.05;2.10;;;23.00;74.30;;;;;;5064980;28;20048;-62
2023/05/21 06:39:46;;;;;;;5.60;2.58;;;23.20;79.10;;;;;;5062027;28;20041;-61
2023/05/21 06:42:12;;;;;;;4.55;2.33;;;23.20;75.50;;;;;;5065673;28;20395;-64
2023/05/21 06:44:38;;;;;;;4.20;2.28;;;23.30;79.20;;;;;;5055144;28;20040;-60
2023/05/21 06:47:04;;;;;;;4.15;2.10;;;23.20;79.20;;;;;;5059377;28;20041;-60
2023/05/21 06:49:31;;;;;;;5.07;2.33;;;22.90;78.90;;;;;;5058870;28;20394;-65
2023/05/21 06:51:58;;;;;;;6.25;2.53;;;23.20;79.10;;;;;;5073683;28;20044;-64
2023/05/21 06:54:24;;;;;;;4.70;1.90;;;23.00;79.00;;;;;;5066256;28;20393;-63
2023/05/21 06:56:50;;;;;;;3.65;1.88;;;23.00;79.00;;;;;;5059634;28;20045;-64
2023/05/21 06:59:16;;;;;;;5.07;2.30;;;23.00;79.00;;;;;;5062917;28;20055;-60
2023/05/21 07:01:42;;;;;;;4.45;1.98;;;23.00;79.00;;;;;;5062771;28;20506;-62
2023/05/21 07:04:09;;;;;;;5.45;2.25;;;22.90;79.10;;;;;;5061973;28;20036;-65
2023/05/21 07:06:35;;;;;;;4.75;2.10;;;23.00;79.20;;;;;;5048657;28;20048;-61
2023/05/21 07:09:01;;;;;;;4.20;2.22;;;22.90;79.20;;;;;;5055952;28;20124;-60
2023/05/21 07:11:27;;;;;;;3.50;2.00;;;23.30;79.80;;;;;;5060951;28;20494;-62
2023/05/21 07:13:56;;;;;;;4.80;2.42;;;23.00;79.20;;;;;;5057622;28;20049;-64
2023/05/21 07:16:22;;;;;;;5.20;2.42;;;22.90;79.30;;;;;;5059227;28;20403;-65
2023/05/21 07:18:48;;;;;;;6.07;2.40;;;;;;;;;;5058997;28;20045;-66
2023/05/21 07:21:14;;;;;;;5.43;2.17;;;23.00;79.30;;;;;;5059429;28;20047;-61
2023/05/21 07:23:40;;;;;;;4.78;2.10;;;23.10;79.40;;;;;;5064842;28;20395;-59
2023/05/21 07:26:06;;;;;;;7.18;2.20;;;22.80;79.20;;;;;;5058687;28;20040;-60
2023/05/21 07:28:31;;;;;;;6.05;2.00;;;23.10;79.30;;;;;;5072413;28;20040;-62
2023/05/21 07:30:57;;;;;;;7.10;2.42;;;22.90;79.20;;;;;;5068551;28;20041;-62
2023/05/21 07:33:23;;;;;;;4.20;2.10;;;22.80;76.00;;;;;;5064602;28;20045;-62
2023/05/21 07:35:49;;;;;;;4.82;2.05;;;23.00;79.40;;;;;;5060689;28;20099;-61
2023/05/21 07:38:14;;;;;;;5.03;2.33;;;23.00;79.50;;;;;;5054259;28;20091;-60
2023/05/21 07:40:40;;;;;;;5.07;2.30;;;23.10;79.40;;;;;;5058821;28;20029;-59
2023/05/21 07:43:06;;;;;;;5.05;2.35;;;;;;;;;;5059489;28;20094;-64
2023/05/21 07:45:32;;;;;;;5.75;2.47;;;22.90;79.30;;;;;;5053545;28;20132;-60
2023/05/21 07:47:58;;;;;;;5.68;2.22;;;23.10;76.80;;;;;;5053965;28;20518;-61
2023/05/21 07:50:24;;;;;;;5.03;2.03;;;23.10;78.50;;;;;;5056927;28;20101;-61
2023/05/21 07:52:50;;;;;;;6.53;2.20;;;23.10;79.60;;;;;;5064513;28;20037;-61
2023/05/21 07:55:16;;;;;;;5.90;2.15;;;;;;;;;;5059312;28;20390;-64
2023/05/21 07:57:42;;;;;;;5.35;2.17;;;23.10;79.50;;;;;;5054821;28;20118;-60
2023/05/21 08:00:09;;;;;;;4.28;2.10;;;23.00;79.50;;;;;;5053834;28;20033;-60
2023/05/21 08:02:35;;;;;;;4.78;2.20;;;22.90;79.30;;;;;;5059651;28;20083;-61
2023/05/21 08:05:01;;;;;;;4.85;2.33;;;23.10;75.20;;;;;;5061146;28;20489;-61
2023/05/21 08:07:27;;;;;;;6.40;2.45;;;23.10;77.20;;;;;;5053341;28;20045;-62
2023/05/21 08:09:53;;;;;;;5.00;2.22;;;22.90;79.50;;;;;;5052533;28;20048;-61
2023/05/21 08:12:19;;;;;;;4.28;2.10;;;23.10;79.90;;;;;;5054758;28;20051;-61
2023/05/21 08:14:45;;;;;;;5.15;2.25;;;23.20;79.80;;;;;;5046944;28;20060;-60
2023/05/21 08:17:11;;;;;;;5.32;2.33;;;23.20;79.00;;;;;;5060850;28;20044;-61
2023/05/21 08:19:37;;;;;;;4.78;2.20;;;23.20;79.90;;;;;;5070619;28;20041;-61
2023/05/21 08:22:05;;;;;;;6.20;2.20;;;23.20;80.00;;;;;;5066247;28;20064;-61
2023/05/21 08:24:31;;;;;;;5.53;2.47;;;;;;;;;;5057359;28;20076;-63
2023/05/21 08:26:57;;;;;;;4.38;1.95;;;23.10;79.70;;;;;;5053550;28;20124;-66
2023/05/21 08:29:23;;;;;;;6.22;2.53;;;23.40;80.00;;;;;;5052361;28;20220;-64
2023/05/21 08:31:48;;;;;;;6.32;2.40;;;23.30;79.80;;;;;;5058821;28;20048;-60
2023/05/21 08:34:15;;;;;;;4.20;2.15;;;23.40;79.80;;;;;;5061399;28;20147;-60
2023/05/21 08:36:42;;;;;;;4.43;2.20;;;23.50;79.80;;;;;;5057411;28;20041;-61
2023/05/21 08:39:08;;;;;;;6.65;2.30;;;23.20;79.50;;;;;;5059165;28;20394;-61
2023/05/21 08:41:34;;;;;;;4.55;2.35;;;23.10;79.40;;;;;;5055453;28;20040;-60
2023/05/21 08:44:01;;;;;;;6.70;2.47;;;23.50;79.60;;;;;;5059986;28;20032;-66
2023/05/21 08:46:30;;;;;;;5.95;2.40;;;23.60;79.60;;;;;;5052673;28;20521;-66
2023/05/21 08:48:57;;;;;;;4.32;2.30;;;;;;;;;;5051980;28;20044;-61
2023/05/21 08:51:23;;;;;;;4.43;2.13;;;23.20;79.20;;;;;;5041527;28;20147;-63
2023/05/21 08:53:50;;;;;;;7.70;2.50;;;23.20;79.30;;;;;;5063972;28;20490;-61
2023/05/21 08:56:17;;;;;;;5.68;2.08;;;23.60;79.60;;;;;;5039298;28;20083;-62
2023/05/21 08:58:45;;;;;;;4.68;2.17;;;23.40;78.90;;;;;;5053899;28;20091;-62
2023/05/21 09:01:11;;;;;;;5.28;2.25;;;23.50;79.50;;;;;;5051757;28;20044;-60
2023/05/21 09:03:39;;;;;;;7.72;2.63;;;23.60;78.00;;;;;;5050615;28;20082;-61
2023/05/21 09:06:08;;;;;;;7.13;2.60;;;23.60;79.60;;;;;;5052301;28;20041;-61
2023/05/21 09:08:34;;;;;;;5.18;2.22;;;23.60;79.80;;;;;;5053174;28;20091;-63
2023/05/21 09:11:01;;;;;;;5.70;2.10;;;23.70;79.90;;;;;;5045653;28;20064;-66
2023/05/21 09:13:27;;;;;;;5.22;2.40;;;23.50;80.00;;;;;;5055486;28;20060;-61
2023/05/21 09:15:53;;;;;;;5.53;2.40;;;23.50;79.60;;;;;;5034029;28;20053;-63
2023/05/21 09:18:19;;;;;;;4.75;2.20;;;23.60;79.80;;;;;;5058124;28;20044;-61
2023/05/21 09:20:45;;;;;;;7.35;2.83;;;23.60;79.80;;;;;;5052837;28;20056;-61
2023/05/21 09:23:15;;;;;;;5.35;2.30;;;;;;;;;;5051603;28;20055;-63
2023/05/21 09:25:43;;;;;;;4.32;2.40;;;23.80;80.10;;;;;;5055592;28;20045;-66
2023/05/21 09:28:13;;;;;;;6.78;2.47;;;23.50;79.80;;;;;;5052560;28;20483;-68
2023/05/21 09:30:46;;;;;;;6.00;2.30;;;23.80;80.00;;;;;;5053251;28;20103;-68
2023/05/21 09:33:12;;;;;;;6.53;2.55;;;23.60;79.90;;;;;;5059750;28;20127;-66
2023/05/21 09:35:45;;;;;;;8.02;2.90;;;23.60;80.00;;;;;;5051124;28;20474;-60
2023/05/21 09:38:11;;;;;;;4.88;2.40;;;23.90;80.20;;;;;;5070619;28;20053;-62
2023/05/21 09:40:38;;;;;;;6.05;3.00;;;23.70;80.10;;;;;;5051701;28;20051;-61
2023/05/21 09:43:04;;;;;;;8.38;3.17;;;23.50;77.00;;;;;;5042845;28;20049;-63
2023/05/21 09:45:30;;;;;;;8.88;3.65;;;23.80;80.00;;;;;;5059143;28;20052;-61
2023/05/21 09:47:56;;;;;;;6.07;3.05;;;23.60;80.00;;;;;;5068335;28;20048;-63
2023/05/21 09:50:24;;;;;;;7.28;3.05;;;23.70;80.30;;;;;;5042917;28;20057;-61
2023/05/21 09:52:51;;;;;;;8.65;3.38;;;23.70;78.00;;;;;;5049470;28;20043;-61
2023/05/21 09:55:21;;;;;;;7.50;2.75;;;23.70;80.00;;;;;;5063941;28;20052;-61
2023/05/21 09:57:48;;;;;;;5.32;2.85;;;23.80;76.50;;;;;;5066120;28;20081;-65
2023/05/21 10:00:21;;;;;;;7.38;3.22;;;23.80;80.20;;;;;;5060537;28;20032;-63
2023/05/21 10:02:47;;;;;;;;;;;23.80;76.20;;;;;;5070788;28;20406;-62
2023/05/21 10:05:16;;;;;;;7.18;3.38;;;23.60;79.80;;;;;;5062619;28;19920;-67
2023/05/21 10:07:46;;;;;;;9.07;3.42;;;23.60;80.10;;;;;;5056452;28;20052;-66
2023/05/21 10:10:13;;;;;;;8.65;3.30;;;23.70;79.90;;;;;;5054734;28;20547;-66
2023/05/21 10:12:44;;;;;;;6.10;3.42;;;23.80;80.00;;;;;;5054514;28;20073;-66
2023/05/21 10:15:15;;;;;;;10.05;3.17;;;23.80;79.90;;;;;;5049742;28;20127;-65
2023/05/21 10:17:42;;;;;;;8.23;3.78;;;23.80;79.80;;;;;;5051771;28;20394;-67
2023/05/21 10:20:09;;;;;;;9.57;3.20;;;23.80;80.30;;;;;;5058841;28;20545;-66
2023/05/21 10:22:36;;;;;;;7.57;3.60;;;24.00;80.30;;;;;;5054725;28;20056;-67
2023/05/21 10:25:02;;;;;;;6.70;3.17;;;23.80;80.30;;;;;;5061312;28;20041;-65
2023/05/21 10:27:29;;;;;;;7.85;3.70;;;23.80;80.30;;;;;;5058416;28;20127;-68
2023/05/21 10:29:55;;;;;;;7.32;4.32;;;23.90;80.20;;;;;;5054740;28;20052;-67
2023/05/21 10:32:21;;;;;;;8.48;3.75;;;23.90;77.40;;;;;;5067147;28;20048;-68
2023/05/21 10:34:47;;;;;;;9.85;4.47;;;24.00;80.80;;;;;;5052609;28;20132;-68
2023/05/21 10:37:13;;;;;;;9.38;4.55;;;23.90;80.50;;;;;;5049446;28;20051;-67
2023/05/21 10:39:39;;;;;;;8.55;3.75;;;23.80;80.50;;;;;;5062829;28;20049;-66
2023/05/21 10:42:17;;;;;;;8.48;4.60;;;24.00;80.60;;;;;;5045930;28;20558;-66
2023/05/21 10:45:07;;;;;;;9.80;5.70;;;23.80;79.90;;;;;;5042635;28;20029;-64
2023/05/21 10:47:54;;;;;;;8.50;3.83;;;24.00;80.30;;;;;;5053630;28;20048;-66
2023/05/21 10:50:50;;;;;;;10.88;5.07;;;23.90;80.30;;;;;;5057782;28;20045;-62
2023/05/21 10:53:43;;;;;;;8.85;4.15;;;23.90;80.80;;;;;;5046041;28;20138;-62
2023/05/21 10:56:24;;;;;;;7.75;4.28;;;23.90;80.80;;;;;;5049515;28;20452;-61
2023/05/21 10:59:20;;;;;;;6.55;4.03;;;23.90;80.50;;;;;;5050992;28;20448;-66
2023/05/21 11:01:47;;;;;;;8.27;4.50;;;24.10;78.90;;;;;;5072319;28;20049;-63
2023/05/21 11:04:14;;;;;;;8.90;4.30;;;24.10;80.80;;;;;;5056639;28;20075;-62
2023/05/21 11:06:40;;;;;;;7.78;4.30;;;24.20;81.30;;;;;;5064709;28;20076;-66
2023/05/21 11:09:12;;;;;;;7.03;4.57;;;24.00;81.00;;;;;;5043459;28;20738;-66
2023/05/21 11:11:47;;;;;;;;;;;24.00;78.50;;;;;;5054326;28;20061;-64
2023/05/21 11:14:56;;;;;;;6.68;4.40;;;24.10;81.50;;;;;;5062034;28;19930;-64
2023/05/21 11:17:38;;;;;;;7.18;4.45;;;24.00;81.30;;;;;;5005683;28;20140;-64
2023/05/21 11:20:08;;;;;;;10.88;4.88;;;23.80;81.00;;;;;;4984757;28;20049;-66
2023/05/21 11:22:34;;;;;;;9.48;4.95;;;23.90;78.20;;;;;;4988841;28;20077;-66
2023/05/21 11:25:01;;;;;;;7.97;4.80;;;;;;;;;;5001471;28;20046;-68
2023/05/21 11:27:31;;;;;;;6.90;4.68;;;24.10;81.50;;;;;;5004106;28;20173;-66
2023/05/21 11:29:58;;;;;;;10.65;5.43;;;;;;;;;;5006830;28;20045;-66
2023/05/21 11:32:24;;;;;;;8.73;4.88;;;24.00;81.20;;;;;;5007721;28;20097;-67
2023/05/21 11:34:50;;;;;;;11.45;5.50;;;24.10;79.30;;;;;;5002725;28;20553;-66
2023/05/21 11:37:16;;;;;;;9.45;5.50;;;24.10;81.40;;;;;;4999001;28;20041;-66
2023/05/21 11:39:48;;;;;;;9.20;5.45;;;24.10;81.50;;;;;;4999393;28;20038;-66
2023/05/21 11:42:27;;;;;;;9.63;6.07;;;24.10;81.30;;;;;;5005889;28;20515;-66
2023/05/21 11:44:56;;;;;;;8.32;4.95;;;24.20;81.80;;;;;;5004441;28;20059;-66
2023/05/21 11:47:22;;;;;;;8.40;5.22;;;24.20;81.60;;;;;;4983948;28;20060;-66
2023/05/21 11:49:48;;;;;;;8.25;4.75;;;24.10;82.00;;;;;;5002733;28;20435;-66
2023/05/21 11:52:14;;;;;;;10.07;4.70;;;24.50;79.00;;;;;;5003782;28;20093;-67
2023/05/21 11:54:44;;;;;;;10.50;4.80;;;24.30;82.00;;;;;;5047836;28;20063;-68
2023/05/21 11:57:10;;;;;;;11.27;5.10;;;24.40;82.00;;;;;;5052946;28;20064;-63
2023/05/21 11:59:36;;;;;;;8.25;4.78;;;24.10;81.90;;;;;;5059560;28;20533;-63
2023/05/21 12:02:03;;;;;;;9.20;5.20;;;24.30;82.00;;;;;;5065186;28;20127;-68
2023/05/21 12:04:35;;;;;;;10.13;4.75;;;24.20;82.00;;;;;;5068645;28;20048;-63
2023/05/21 12:07:08;;;;;;;10.77;5.78;;;24.30;79.60;;;;;;5064143;28;20036;-62
2023/05/21 12:09:44;;;;;;;11.48;5.95;;;24.30;78.10;;;;;;5057252;28;20103;-66
2023/05/21 12:12:15;;;;;;;10.20;6.88;;;24.50;83.00;;;;;;5053217;28;20055;-67
2023/05/21 12:14:47;;;;;;;7.63;4.43;;;24.30;82.20;;;;;;5053540;28;20372;-68
2023/05/21 12:17:20;;;;;;;;;;;24.40;79.80;;;;;;5053005;28;20095;-67
2023/05/21 12:19:47;;;;;;;8.45;4.82;;;24.30;82.30;;;;;;5058691;28;19924;-67
2023/05/21 12:22:15;;;;;;;6.63;4.70;;;24.40;82.60;;;;;;5039734;28;20421;-67
2023/05/21 12:24:42;;;;;;;28.35;6.20;;;24.60;83.10;;;;;;5055098;28;20384;-68
2023/05/21 12:27:09;;;;;;;14.57;5.88;;;24.40;82.90;;;;;;5059058;28;20497;-68
2023/05/21 12:29:37;;;;;;;14.15;5.63;;;24.30;81.90;;;;;;5049595;28;20052;-65
2023/05/21 12:32:05;;;;;;;12.23;4.93;;;24.30;82.00;;;;;;5054549;28;20481;-68
2023/05/21 12:34:41;;;;;;;10.50;5.00;;;24.30;82.30;;;;;;5061621;28;20044;-67
2023/05/21 12:37:07;;;;;;;10.82;4.78;;;24.50;82.00;;;;;;5058058;28;20449;-63
2023/05/21 12:39:43;;;;;;;10.07;5.60;;;24.30;79.00;;;;;;5060032;28;20036;-64
2023/05/21 12:42:09;;;;;;;8.45;5.78;;;24.30;82.00;;;;;;5062310;28;20449;-73
2023/05/21 12:44:37;;;;;;;7.68;4.88;;;24.30;82.00;;;;;;5062662;28;20432;-63
2023/05/21 12:47:03;;;;;;;8.77;5.65;;;24.30;82.30;;;;;;5055975;28;20040;-65
2023/05/21 12:49:37;;;;;;;9.43;5.93;;;24.40;79.10;;;;;;5053583;28;20044;-69
2023/05/21 12:52:05;;;;;;;9.07;6.25;;;24.10;82.20;;;;;;5061445;28;20045;-69
2023/05/21 12:54:33;;;;;;;9.93;6.03;;;24.30;82.80;;;;;;5064881;28;20036;-67
2023/05/21 12:57:15;;;;;;;8.68;5.70;;;24.30;82.20;;;;;;5058823;28;20103;-73